Nearby METAR Reports

 

KDFW - Dallas/Ft Worth, Texas, USA
Distance from station: ESE 9mi, 14km
Updated: 12/10/2018 2:53am
Clear
Clear
 Wind from NW
Wind: NW 7 mph , 11 km/h
Temperature: 36°F , 2°C
Wind Chill: 30°F , -1°C
Dew Point: 28°F , -2°C
Humidity: 75%
Barometer: 30.33 inHg , 1027.1 hPa
Clouds: Clear
Visibility: 10 miles , 16 km
2018/12/10 08:53 KDFW 100853Z 31006KT 10SM CLR 02/M02 A3033 RMK AO2 SLP271 T00221022 56006 $
KAFW - Ft Worth/Alliance, Texas, USA
Distance from station: W 10mi, 16km
Updated: 12/10/2018 2:53am
Clear
Clear
 Wind from WNW
Wind: WNW 8 mph , 13 km/h
Temperature: 36°F , 2°C
Wind Chill: 30°F , -1°C
Dew Point: 30°F , -1°C
Humidity: 81%
Barometer: 30.35 inHg , 1027.8 hPa
Clouds: Clear
Visibility: 10 miles , 16 km
2018/12/10 08:53 KAFW 100853Z 30007KT 10SM CLR 02/M01 A3035 RMK AO2 SLP285 T00221011 56004
 
KDTO - Denton, Texas, USA
Distance from station: NNW 16mi, 26km
Updated: 12/10/2018 2:53am
Clear
Clear
 Wind from WNW
Wind: WNW 7 mph , 11 km/h
Temperature: 30°F , -1°C
Wind Chill: 23°F , -5°C
Dew Point: 27°F , -3°C
Humidity: 86%
Barometer: 30.35 inHg , 1027.8 hPa
Clouds: Clear
Visibility: 10 miles , 16 km
2018/12/10 08:53 KDTO 100853Z AUTO 29006KT 10SM CLR M01/M03 A3035 RMK AO2 SLP279 T10061028 57005
KFTW - Fort Worth/Meacham, Texas, USA
Distance from station: SW 16mi, 26km
Updated: 12/10/2018 2:53am
Clear
Clear
 Wind from NW
Wind: NW 3 mph , 6 km/h
Temperature: 36°F , 2°C
Dew Point: 28°F , -2°C
Humidity: 75%
Barometer: 30.35 inHg , 1027.8 hPa
Clouds: Clear
Visibility: 10 miles , 16 km
2018/12/10 08:53 KFTW 100853Z 31003KT 10SM CLR 02/M02 A3035 RMK AO2 SLP280 T00171017 56006
 
KADS - Dallas/Addison, Texas, USA
Distance from station: E 19mi, 31km
Updated: 12/10/2018 3:35am
Clear
Clear
 Wind from calm
Wind: Calm
Temperature: 34°F , 1°C
Dew Point: 30°F , -1°C
Humidity: 87%
Barometer: 30.36 inHg , 1028.1 hPa
Clouds: Clear
Visibility: 10 miles , 16 km
2018/12/10 09:35 KADS 100935Z AUTO 00000KT 10SM CLR 01/M01 A3036 RMK AO2 T00101008
KDAL - Dallas/Love Field, Texas, USA
Distance from station: ESE 19mi, 31km
Updated: 12/10/2018 2:53am
Few Clouds
Few Clouds
 Wind from calm
Wind: Calm
Temperature: 36°F , 2°C
Dew Point: 30°F , -1°C
Humidity: 81%
Barometer: 30.35 inHg , 1027.8 hPa
Clouds: Few Clouds
Visibility: 10 miles , 16 km
Cloud details: Few Clouds 12000 ft
Few Clouds 16000 ft
2018/12/10 08:53 KDAL 100853Z 00000KT 10SM FEW120 FEW160 02/M01 A3035 RMK AO2 SLP279 T00221006 55004 $
 
KGPM - Grand Prairie, Texas, USA
Distance from station: SSE 19mi, 31km
Updated: 12/10/2018 3:35am
Clear
Clear
 Wind from W
Wind: W 5 mph , 7 km/h
Temperature: 37°F , 3°C
Wind Chill: 33°F , 1°C
Dew Point: 30°F , -1°C
Humidity: 75%
Barometer: 30.37 inHg , 1028.4 hPa
Clouds: Clear
Visibility: 10 miles , 16 km
2018/12/10 09:35 KGPM 100935Z AUTO 27004KT 10SM CLR 03/M01 A3037 RMK AO2 T00261010
KGKY - Arlington, Texas, USA
Distance from station: S 21mi, 34km
Updated: 12/10/2018 2:53am
Clear
Clear
 Wind from W
Wind: W 6 mph , 9 km/h
Temperature: 37°F , 3°C
Wind Chill: 32°F , 0°C
Dew Point: 32°F , 0°C
Humidity: 81%
Barometer: 30.36 inHg , 1028.1 hPa
Clouds: Clear
Visibility: 10 miles , 16 km
2018/12/10 08:53 KGKY 100853Z AUTO 28005KT 10SM CLR 03/00 A3036 RMK AO2 SLP279 T00280000 55005
 
KNFW - Fort Worth NAS, Texas, USA
Distance from station: SW 21mi, 34km
Updated: 12/10/2018 2:52am
Clear
Clear
 Wind from varies
Wind: varies 3 mph , 6 km/h
Temperature: 36°F , 2°C
Dew Point: 28°F , -2°C
Humidity: 75%
Barometer: 30.36 inHg , 1028.1 hPa
Clouds: Clear
Visibility: 10 miles , 16 km
2018/12/10 08:52 KNFW 100852Z AUTO VRB03KT 10SM CLR 02/M02 A3036 RMK AO2 SLP263 T00171022 56005 FZRANO TSNO VISNO N $
KRBD - Dallas/Redbird, Texas, USA
Distance from station: SE 26mi, 41km
Updated: 12/10/2018 2:53am
Clear
Clear
 Wind from WNW
Wind: WNW 7 mph , 11 km/h
Temperature: 36°F , 2°C
Wind Chill: 30°F , -1°C
Dew Point: 28°F , -2°C
Humidity: 75%
Barometer: 30.34 inHg , 1027.4 hPa
Clouds: Clear
Visibility: 10 miles , 16 km
2018/12/10 08:53 KRBD 100853Z AUTO 30006KT 10SM CLR 02/M02 A3034 RMK AO2 SLP276 6//// T00171017 55004 PNO $
 
KFWS - Fort Worth/Spinks, Texas, USA
Distance from station: SSW 29mi, 47km
Updated: 12/10/2018 3:35am
Clear
Clear
 Wind from calm
Wind: Calm
Temperature: 30°F , -1°C
Dew Point: 28°F , -2°C
Humidity: 93%
Barometer: 30.37 inHg , 1028.4 hPa
Clouds: Clear
Visibility: 10 miles , 16 km
2018/12/10 09:35 KFWS 100935Z AUTO 00000KT 10SM CLR M01/M02 A3037 RMK AO2 T10081023
KLUD - Decatur, Texas, USA
Distance from station: NW 32mi, 51km
Updated: 12/10/2018 3:35am
Clear
Clear
 Wind from calm
Wind: Calm
Temperature: 34°F , 1°C
Dew Point: 28°F , -2°C
Humidity: 81%
Barometer: 30.34 inHg , 1027.4 hPa
Clouds: Clear
Visibility: 10 miles , 16 km
2018/12/10 09:35 KLUD 100935Z AUTO 00000KT 10SM CLR 01/M02 A3034 RMK AO2 T00081022
 
KTKI - McKinney, Texas, USA
Distance from station: ENE 36mi, 58km
Updated: 12/10/2018 2:53am
Clear
Clear
 Wind from WNW
Wind: WNW 6 mph , 9 km/h
Temperature: 34°F , 1°C
Wind Chill: 29°F , -2°C
Dew Point: 28°F , -2°C
Humidity: 81%
Barometer: 30.35 inHg , 1027.8 hPa
Clouds: Clear
Visibility: 10 miles , 16 km
2018/12/10 08:53 KTKI 100853Z AUTO 30005KT 10SM CLR 01/M02 A3035 RMK AO2 SLP289 T00111017 55005 $
KLNC - Lancaster, Texas, USA
Distance from station: SE 36mi, 59km
Updated: 12/10/2018 3:35am
Clear
Clear
 Wind from WNW
Wind: WNW 5 mph , 7 km/h
Temperature: 34°F , 1°C
Wind Chill: 29°F , -2°C
Dew Point: 30°F , -1°C
Humidity: 87%
Barometer: 30.35 inHg , 1027.8 hPa
Clouds: Clear
Visibility: 10 miles , 16 km
2018/12/10 09:35 KLNC 100935Z AUTO 29004KT 10SM CLR 01/M01 A3035 RMK AO2 T00141013
 
KJWY - Midlothian/Wax, Texas, USA
Distance from station: SSE 38mi, 62km
Updated: 12/10/2018 3:35am
Clear
Clear
 Wind from W
Wind: W 3 mph , 6 km/h
Temperature: 32°F , 0°C
Dew Point: 32°F , 0°C
Humidity: 100%
Barometer: 30.36 inHg , 1028.1 hPa
Clouds: Clear
Visibility: 10 miles , 16 km
2018/12/10 09:35 KJWY 100935Z AUTO 28003KT 10SM CLR 00/00 A3036 RMK AO2 T00011005
KHQZ - Mesquite, Texas, USA
Distance from station: ESE 39mi, 62km
Updated: 12/10/2018 3:35am
Clear
Clear
 Wind from WNW
Wind: WNW 5 mph , 7 km/h
Temperature: 36°F , 2°C
Wind Chill: 32°F , 0°C
Dew Point: 30°F , -1°C
Humidity: 81%
Barometer: 30.35 inHg , 1027.8 hPa
Clouds: Clear
Visibility: 10 miles , 16 km
2018/12/10 09:35 KHQZ 100935Z AUTO 30004KT 10SM CLR 02/M01 A3035 RMK AO1 T00161008
 
KF46 - Rockwall, Texas, USA
Distance from station: E 41mi, 67km
Updated: 12/10/2018 3:35am
Clear
Clear
 Wind from NNW
Wind: NNW 3 mph , 6 km/h
Temperature: 39°F , 4°C
Dew Point: 32°F , 0°C
Humidity: 75%
Barometer: 30.34 inHg , 1027.4 hPa
Clouds: Clear
Visibility: 10 miles , 16 km
2018/12/10 09:35 KF46 100935Z AUTO 33003KT 10SM CLR 04/00 A3034 RMK AO2 T00400002
KXBP - Bridgeport, Texas, USA
Distance from station: WNW 43mi, 68km
Updated: 12/10/2018 3:35am
Clear
Clear
 Wind from WSW
Wind: WSW 5 mph , 7 km/h
Temperature: 30°F , -1°C
Wind Chill: 25°F , -4°C
Dew Point: 27°F , -3°C
Humidity: 86%
Barometer: 30.37 inHg , 1028.4 hPa
Clouds: Clear
Visibility: 10 miles , 16 km
2018/12/10 09:35 KXBP 100935Z AUTO 25004KT 10SM CLR M01/M03 A3037 RMK AO2 T10071026 PNO
 
KCPT - Cleburne, Texas, USA
Distance from station: SSW 46mi, 74km
Updated: 12/10/2018 3:35am
Clear
Clear
 Wind from W
Wind: W 8 mph , 13 km/h
Temperature: 32°F , 0°C
Wind Chill: 25°F , -4°C
Dew Point: 30°F , -1°C
Humidity: 93%
Barometer: 30.37 inHg , 1028.4 hPa
Clouds: Clear
Visibility: 10 miles , 16 km
2018/12/10 09:35 KCPT 100935Z AUTO 28007KT 10SM CLR M00/M01 A3037 RMK AO2
KGLE - Gainesville, Texas, USA
Distance from station: N 47mi, 76km
Updated: 12/10/2018 3:35am
Clear
Clear
 Wind from calm
Wind: Calm
Temperature: 30°F , -1°C
Dew Point: 28°F , -2°C
Humidity: 93%
Barometer: 30.36 inHg , 1028.1 hPa
Clouds: Clear
Visibility: 10 miles , 16 km
2018/12/10 09:35 KGLE 100935Z AUTO 00000KT 10SM CLR M01/M02 A3036 RMK AO2 T10101025